76NE weather

Good Samaritan Heliport
Kearney, Nebraska, United States

Public forecast

Using degrees Fahrenheit for public forecast. Weather courtesy of forecast.io.

Closest aviation weather report (METAR) to Good Samaritan Heliport

Closest report is Kearney Regional Airport, 3.6 nm (6.7 km) ENE. Retrieved 2019/10/15 01:56 UTC (49 minutes ago):

KEAR 150156Z AUTO 20004KT 10SM CLR 17/08 A2979 RMK AO2 SLP088 T01720083

Closest aviation forecast (TAF) to Good Samaritan Heliport

Closest forecast is Kearney Regional Airport, 3.6 nm (6.7 km) ENE. Retrieved 2019-10-15 00:39 UTC (2 hours ago):

TAF KEAR 142336Z 1500/1524 18007KT P6SM SKC FM151000 33015KT P6SM SKC WS008/00040KT FM151400 33016G27KT P6SM SKC FM151800 33020G31KT P6SM FEW035 FM152200 33020KT P6SM FEW035